Time;durP1;ratioP1;P1;durP2;ratioP2;P2;SDS_P1;SDS_P2;PMS_P1;PMS_P2;Temp;Humidity;BMP_temperature;BMP_pressure;BME280_temperature;BME280_humidity;BME280_pressure;Samples;Min_cycle;Max_cycle;Signal;HPM_P1;HPM_P2
2023/02/19 00:00:54;;;;;;;2.07;1.70;;;;;;;11.27;60.88;101114.03;5085531;27;97457;-71
2023/02/19 00:03:20;;;;;;;4.13;1.80;;;;;;;11.22;60.86;101109.81;5089630;27;96798;-71
2023/02/19 00:05:48;;;;;;;3.60;1.90;;;;;;;11.08;61.31;101118.19;5082358;27;97235;-72
2023/02/19 00:08:17;;;;;;;6.25;1.95;;;;;;;11.24;61.03;101111.47;5075593;27;100016;-71
2023/02/19 00:10:44;;;;;;;3.70;1.63;;;;;;;11.17;60.94;101112.59;5077821;27;101779;-70
2023/02/19 00:13:10;;;;;;;6.63;1.58;;;;;;;11.30;60.60;101113.91;5087385;27;96729;-70
2023/02/19 00:15:37;;;;;;;4.57;1.85;;;;;;;11.10;60.11;101108.41;5077121;27;97556;-72
2023/02/19 00:18:03;;;;;;;7.15;1.70;;;;;;;11.07;60.84;101112.03;5085296;27;98925;-71
2023/02/19 00:20:30;;;;;;;2.83;1.50;;;;;;;11.40;59.90;101103.91;5083683;27;99209;-70
2023/02/19 00:22:57;;;;;;;5.22;1.60;;;;;;;10.98;60.26;101104.38;5080380;27;97249;-71
2023/02/19 00:25:24;;;;;;;2.95;1.88;;;;;;;10.99;60.70;101110.53;5079884;27;96806;-72
2023/02/19 00:27:50;;;;;;;2.97;2.00;;;;;;;11.07;60.85;101103.22;5084995;27;98865;-70
2023/02/19 00:30:17;;;;;;;1.98;1.58;;;;;;;11.21;60.66;101106.31;5082653;27;98852;-70
2023/02/19 00:32:43;;;;;;;5.53;1.80;;;;;;;11.29;60.82;101096.31;5078663;27;97574;-69
2023/02/19 00:35:10;;;;;;;5.97;2.65;;;;;;;11.25;60.43;101088.53;5076101;27;98759;-70
2023/02/19 00:37:36;;;;;;;6.90;2.28;;;;;;;10.85;62.47;101088.94;5087916;27;99471;-70
2023/02/19 00:40:04;;;;;;;2.83;2.08;;;;;;;11.13;61.99;101079.22;5080934;27;98514;-71
2023/02/19 00:42:31;;;;;;;4.03;2.10;;;;;;;11.26;61.28;101083.19;5077055;27;97793;-71
2023/02/19 00:44:57;;;;;;;3.72;2.28;;;;;;;11.05;62.35;101086.53;5079876;27;98605;-70
2023/02/19 00:47:23;;;;;;;2.97;2.20;;;;;;;11.19;62.35;101074.59;5080231;27;100866;-71
2023/02/19 00:49:50;;;;;;;2.60;2.30;;;;;;;11.24;62.20;101082.38;5075259;27;98954;-71
2023/02/19 00:52:16;;;;;;;2.65;2.10;;;;;;;11.27;62.09;101089.34;5088545;27;97808;-70
2023/02/19 00:54:43;;;;;;;3.58;2.28;;;;;;;11.31;61.79;101081.25;5081169;27;97308;-70
2023/02/19 00:57:11;;;;;;;5.72;2.50;;;;;;;11.62;60.94;101069.66;5088271;27;98859;-70
2023/02/19 00:59:37;;;;;;;4.20;3.10;;;;;;;11.72;61.01;101069.28;5083032;27;98934;-70
2023/02/19 01:02:04;;;;;;;3.00;2.42;;;;;;;11.55;61.12;101067.19;5089081;27;96708;-69
2023/02/19 01:04:30;;;;;;;3.97;2.72;;;;;;;11.57;61.20;101077.72;5083490;27;97241;-71
2023/02/19 01:06:56;;;;;;;3.08;2.45;;;;;;;11.28;61.80;101069.94;5089847;27;99242;-71
2023/02/19 01:09:23;;;;;;;3.00;2.55;;;;;;;11.62;61.34;101057.25;5081428;27;99132;-70
2023/02/19 01:11:49;;;;;;;2.75;2.50;;;;;;;11.64;61.63;101063.38;5080116;27;97763;-73
2023/02/19 01:14:18;;;;;;;3.45;2.85;;;;;;;11.62;61.59;101051.97;5083330;27;97586;-72
2023/02/19 01:16:44;;;;;;;3.95;3.10;;;;;;;11.73;61.10;101054.25;5082400;27;97995;-71
2023/02/19 01:19:11;;;;;;;4.47;3.10;;;;;;;11.70;61.42;101054.34;5079697;27;100698;-71
2023/02/19 01:21:39;;;;;;;3.67;2.75;;;;;;;11.69;61.34;101050.84;5075306;27;97382;-71
2023/02/19 01:24:06;;;;;;;3.28;2.97;;;;;;;11.88;60.55;101038.69;5086151;27;97303;-71
2023/02/19 01:26:33;;;;;;;3.67;2.90;;;;;;;11.85;60.48;101028.22;5080665;27;101054;-73
2023/02/19 01:29:01;;;;;;;6.95;3.13;;;;;;;11.94;60.27;101029.69;5086379;27;97763;-70
2023/02/19 01:31:30;;;;;;;6.18;3.25;;;;;;;11.99;60.29;101019.78;5080607;27;98040;-71
2023/02/19 01:33:58;;;;;;;3.97;3.08;;;;;;;11.83;59.67;101005.38;5083646;27;97653;-72
2023/02/19 01:36:26;;;;;;;3.53;2.83;;;;;;;11.66;60.30;101008.59;5074406;27;99301;-71
2023/02/19 01:38:53;;;;;;;4.82;3.17;;;;;;;11.81;59.68;101018.69;5075475;27;98114;-70
2023/02/19 01:41:22;;;;;;;5.72;2.85;;;;;;;11.33;61.01;101031.81;5077315;27;96762;-72
2023/02/19 01:44:24;;;;;;;5.45;2.78;;;;;;;11.23;61.27;101021.56;5076335;27;97278;-71
2023/02/19 01:46:56;;;;;;;4.05;2.92;;;;;;;11.01;61.85;101019.66;5074990;27;99576;-71
2023/02/19 01:49:28;;;;;;;3.45;2.63;;;;;;;11.41;60.64;101020.97;5076784;27;99090;-71
2023/02/19 01:51:58;;;;;;;2.78;2.50;;;;;;;11.36;60.96;101015.81;5079408;27;97121;-72
2023/02/19 01:54:28;;;;;;;4.68;2.67;;;;;;;11.37;60.98;101004.31;5076938;27;96801;-71
2023/02/19 01:56:56;;;;;;;5.97;2.65;;;;;;;11.63;59.89;101005.19;5089731;27;98939;-70
2023/02/19 01:59:23;;;;;;;3.88;2.83;;;;;;;11.82;59.52;101001.84;5084143;27;99212;-70
2023/02/19 02:01:50;;;;;;;3.60;2.58;;;;;;;11.68;59.66;101000.63;5080130;27;96805;-71
2023/02/19 02:04:18;;;;;;;4.97;3.55;;;;;;;11.71;59.48;100995.19;5082377;27;96884;-70
2023/02/19 02:06:50;;;;;;;3.00;2.33;;;;;;;11.75;59.41;100986.28;5079585;27;99527;-71
2023/02/19 02:12:02;;;;;;;5.03;2.50;;;;;;;11.57;58.92;100979.81;5087628;27;97248;-70
2023/02/19 02:14:31;;;;;;;2.90;2.60;;;;;;;11.40;59.02;100985.72;5076968;27;99012;-71
2023/02/19 02:17:08;;;;;;;5.75;2.83;;;;;;;11.44;58.32;100989.09;5080070;27;99258;-71
2023/02/19 02:20:01;;;;;;;5.85;2.50;;;;;;;11.26;59.09;100990.63;5077607;27;98880;-71
2023/02/19 02:22:32;;;;;;;3.08;2.78;;;;;;;10.95;60.25;100997.84;5082380;27;96801;-71
2023/02/19 02:25:32;;;;;;;3.90;3.00;;;;;;;11.47;58.82;100992.53;5079874;27;97386;-70
2023/02/19 02:28:13;;;;;;;5.65;3.40;;;;;;;11.32;58.91;100994.81;5080129;27;99284;-71
2023/02/19 02:30:43;;;;;;;6.55;3.33;;;;;;;11.43;58.39;100996.16;5083978;27;99092;-71
2023/02/19 02:33:17;;;;;;;4.43;3.20;;;;;;;11.48;57.91;100990.75;5078794;27;97625;-70
2023/02/19 02:35:49;;;;;;;5.13;3.20;;;;;;;11.51;58.24;100991.47;5079103;27;97363;-71
2023/02/19 02:38:18;;;;;;;8.18;3.83;;;;;;;11.32;58.11;100984.25;5081282;27;99268;-70
2023/02/19 02:40:45;;;;;;;6.57;3.30;;;;;;;11.20;57.86;100980.25;5074272;27;98794;-71
2023/02/19 02:43:12;;;;;;;7.22;3.15;;;;;;;11.29;57.88;100979.06;5074139;27;97201;-73
2023/02/19 02:45:40;;;;;;;5.90;3.30;;;;;;;11.26;57.89;100980.03;5077386;27;98519;-71
2023/02/19 02:48:14;;;;;;;5.18;3.25;;;;;;;11.08;57.66;100978.03;5080486;27;99052;-70
2023/02/19 02:50:44;;;;;;;7.30;3.28;;;;;;;11.02;58.01;100978.22;5078764;27;98779;-71
2023/02/19 02:56:02;;;;;;;9.27;4.18;;;;;;;10.98;58.75;100985.38;5078145;27;97853;-70
2023/02/19 02:58:31;;;;;;;8.07;3.72;;;;;;;10.86;59.17;100984.94;5086674;27;99056;-70
2023/02/19 03:03:50;;;;;;;7.93;4.13;;;;;;;11.09;58.23;100990.34;5077769;27;97216;-70
2023/02/19 03:06:20;;;;;;;9.60;3.85;;;;;;;10.92;58.75;100987.38;5083556;27;98747;-70
2023/02/19 03:08:53;;;;;;;6.40;3.83;;;;;;;10.99;58.49;100988.91;5078025;27;98966;-69
2023/02/19 03:19:48;;;;;;;10.68;4.13;;;;;;;10.66;58.95;101002.28;5078772;27;97199;-70
2023/02/19 03:22:19;;;;;;;8.75;4.22;;;;;;;10.72;58.50;101004.75;5079955;27;98794;-70
2023/02/19 03:27:40;;;;;;;10.73;4.20;;;;;;;10.41;59.30;101022.47;5077153;27;96853;-71
2023/02/19 03:30:11;;;;;;;15.48;4.93;;;;;;;10.31;59.88;101021.88;5077163;27;99320;-70
2023/02/19 03:32:44;;;;;;;10.98;5.10;;;;;;;10.45;59.38;101012.66;5080286;27;101253;-70
2023/02/19 03:35:14;;;;;;;10.85;4.80;;;;;;;10.19;59.63;101016.09;5080055;27;96884;-70
2023/02/19 03:37:46;;;;;;;11.23;4.45;;;;;;;10.43;59.09;101014.50;5084465;27;96741;-70
2023/02/19 03:40:13;;;;;;;11.00;4.80;;;;;;;10.40;59.49;101023.38;5077179;27;98882;-70
2023/02/19 03:42:44;;;;;;;10.63;4.32;;;;;;;10.35;58.93;101022.66;5086257;27;99285;-71
2023/02/19 03:45:30;;;;;;;7.05;3.47;;;;;;;10.21;58.19;101024.84;5079916;27;98263;-70
2023/02/19 03:48:07;;;;;;;6.20;2.00;;;;;;;10.04;56.87;101027.09;5085474;27;97144;-70
2023/02/19 03:50:41;;;;;;;6.57;2.33;;;;;;;9.80;58.31;101024.22;5079841;27;99004;-71
2023/02/19 03:53:17;;;;;;;8.38;2.40;;;;;;;9.71;58.05;101028.91;5082273;27;98943;-70
2023/02/19 03:55:52;;;;;;;3.97;1.85;;;;;;;9.65;58.07;101027.25;5081463;27;97492;-69
2023/02/19 03:58:24;;;;;;;8.32;2.13;;;;;;;9.67;58.43;101029.88;5081662;27;96973;-70
2023/02/19 04:00:55;;;;;;;5.95;2.33;;;;;;;9.87;58.36;101038.09;5076856;27;99410;-70
2023/02/19 04:03:29;;;;;;;11.02;3.05;;;;;;;9.80;57.47;101039.19;5080576;27;98998;-70
2023/02/19 04:06:01;;;;;;;8.55;2.63;;;;;;;9.68;58.14;101035.13;5084529;27;97024;-70
2023/02/19 04:08:29;;;;;;;8.80;2.38;;;;;;;9.80;58.71;101041.81;5080200;27;96831;-70
2023/02/19 04:10:58;;;;;;;7.38;2.88;;;;;;;9.82;58.46;101043.53;5077561;27;98232;-71
2023/02/19 04:13:30;;;;;;;15.55;2.70;;;;;;;10.19;58.04;101046.00;5076776;27;99072;-71
2023/02/19 04:16:01;;;;;;;5.25;2.10;;;;;;;10.11;57.36;101047.97;5077838;27;97657;-70
2023/02/19 04:18:32;;;;;;;4.22;2.05;;;;;;;10.00;58.19;101043.00;5082200;27;97274;-70
2023/02/19 04:21:02;;;;;;;8.95;2.28;;;;;;;10.00;57.87;101042.13;5078039;27;99468;-70
2023/02/19 04:23:33;;;;;;;7.88;2.40;;;;;;;10.09;57.46;101048.94;5075185;27;98994;-69
2023/02/19 04:26:02;;;;;;;6.53;2.38;;;;;;;9.91;58.13;101053.81;5083303;27;96833;-70
2023/02/19 04:28:28;;;;;;;8.85;2.72;;;;;;;9.85;58.06;101051.34;5083919;27;96935;-71
2023/02/19 04:30:55;;;;;;;11.93;3.13;;;;;;;9.84;58.54;101061.97;5081417;27;98994;-70
2023/02/19 04:33:21;;;;;;;13.68;3.78;;;;;;;9.76;58.46;101063.94;5082131;27;98968;-71
2023/02/19 04:35:49;;;;;;;10.18;2.30;;;;;;;9.88;58.18;101067.09;5079693;27;97551;-70
2023/02/19 04:38:28;;;;;;;8.60;1.95;;;;;;;9.64;58.73;101074.81;5081204;27;96884;-71
2023/02/19 04:40:54;;;;;;;9.68;2.30;;;;;;;9.47;58.67;101067.34;5078383;27;98282;-70
2023/02/19 04:43:20;;;;;;;5.22;1.88;;;;;;;9.28;59.22;101060.78;5080770;27;98993;-70
2023/02/19 04:45:47;;;;;;;7.53;2.28;;;;;;;9.55;58.70;101074.16;5079849;27;96745;-70
2023/02/19 04:48:13;;;;;;;10.13;3.58;;;;;;;9.65;59.02;101066.84;5081053;27;96900;-70
2023/02/19 04:50:42;;;;;;;8.15;2.58;;;;;;;9.72;58.48;101064.91;5081060;27;99249;-71
2023/02/19 04:53:10;;;;;;;9.02;2.22;;;;;;;9.79;58.21;101075.25;5080978;27;101817;-71
2023/02/19 04:55:37;;;;;;;5.68;2.03;;;;;;;9.89;57.89;101083.81;5080447;27;97336;-70
2023/02/19 04:58:04;;;;;;;7.05;2.28;;;;;;;9.74;58.14;101089.50;5080214;27;97505;-70
2023/02/19 05:00:32;;;;;;;5.65;2.20;;;;;;;9.70;58.50;101079.94;5081848;27;99049;-70
2023/02/19 05:02:59;;;;;;;6.85;2.47;;;;;;;9.56;58.46;101083.81;5076973;27;98736;-70
2023/02/19 05:05:25;;;;;;;10.80;4.03;;;;;;;9.82;57.85;101085.75;5082224;27;97582;-70
2023/02/19 05:07:52;;;;;;;8.15;2.38;;;;;;;9.77;57.71;101085.00;5081095;27;97185;-71
2023/02/19 05:10:20;;;;;;;7.43;2.85;;;;;;;9.75;58.12;101080.66;5075051;27;99457;-71
2023/02/19 05:12:46;;;;;;;10.48;4.40;;;;;;;9.82;58.53;101085.75;5076359;27;98924;-70
2023/02/19 05:15:13;;;;;;;4.53;1.83;;;;;;;9.77;57.79;101094.69;5077022;27;97268;-69
2023/02/19 05:17:39;;;;;;;8.27;2.45;;;;;;;9.36;59.94;101090.47;5087657;27;98611;-71
2023/02/19 05:20:06;;;;;;;7.18;2.67;;;;;;;9.54;59.25;101087.38;5083352;27;97789;-71
2023/02/19 05:22:33;;;;;;;5.15;2.08;;;;;;;9.53;59.08;101077.72;5083653;27;99285;-70
2023/02/19 05:24:59;;;;;;;6.32;2.50;;;;;;;9.52;59.08;101079.50;5073607;27;96859;-71
2023/02/19 05:27:27;;;;;;;6.65;2.60;;;;;;;9.72;58.69;101086.88;5084143;27;97350;-71
2023/02/19 05:29:53;;;;;;;7.25;2.78;;;;;;;9.76;58.55;101080.63;5082425;27;98204;-70
2023/02/19 05:32:19;;;;;;;6.32;2.40;;;;;;;9.60;58.69;101076.66;5080939;27;99230;-71
2023/02/19 05:34:46;;;;;;;6.22;2.47;;;;;;;9.40;59.28;101089.50;5084938;27;98839;-72
2023/02/19 05:37:12;;;;;;;3.15;1.80;;;;;;;9.43;59.10;101081.53;5077585;27;97064;-71
2023/02/19 05:39:39;;;;;;;7.15;2.15;;;;;;;9.66;58.54;101086.19;5082714;27;101920;-71
2023/02/19 05:42:05;;;;;;;6.32;2.35;;;;;;;9.65;58.61;101089.75;5076735;27;99345;-72
2023/02/19 05:44:33;;;;;;;4.53;2.17;;;;;;;9.46;58.76;101091.97;5081161;27;97737;-71
2023/02/19 05:46:59;;;;;;;3.47;1.90;;;;;;;9.40;58.74;101093.00;5080950;27;97208;-70
2023/02/19 05:49:26;;;;;;;4.55;1.80;;;;;;;9.60;58.96;101103.91;5083320;27;101130;-71
2023/02/19 05:51:53;;;;;;;9.38;1.92;;;;;;;9.74;58.39;101086.84;5082252;27;99309;-71
2023/02/19 05:54:19;;;;;;;10.43;2.30;;;;;;;9.75;57.97;101092.09;5077657;27;96722;-70
2023/02/19 05:56:46;;;;;;;8.90;1.70;;;;;;;9.76;57.88;101098.25;5081691;27;96851;-70
2023/02/19 05:59:15;;;;;;;4.90;1.75;;;;;;;9.84;57.87;101105.06;5081511;27;98880;-69
2023/02/19 06:01:43;;;;;;;8.43;2.30;;;;;;;9.87;57.29;101098.81;5075835;27;99179;-70
2023/02/19 06:04:11;;;;;;;4.85;1.80;;;;;;;9.72;57.70;101093.94;5079369;27;96814;-71
2023/02/19 06:06:38;;;;;;;5.45;2.13;;;;;;;9.30;58.63;101095.91;5078292;27;97629;-69
2023/02/19 06:09:04;;;;;;;7.97;2.47;;;;;;;9.25;58.83;101093.41;5080089;27;97584;-70
2023/02/19 06:11:31;;;;;;;5.75;2.40;;;;;;;9.24;59.90;101103.97;5077225;27;98727;-70
2023/02/19 06:13:58;;;;;;;4.82;1.92;;;;;;;9.40;59.62;101102.69;5076732;27;97270;-70
2023/02/19 06:16:24;;;;;;;3.20;2.25;;;;;;;9.17;59.62;101101.50;5078854;27;96904;-71
2023/02/19 06:18:52;;;;;;;6.88;1.95;;;;;;;8.62;61.23;101090.47;5079243;27;99350;-71
2023/02/19 06:21:19;;;;;;;7.28;1.85;;;;;;;8.47;61.91;101090.81;5081032;27;97532;-69
2023/02/19 06:23:46;;;;;;;4.82;2.30;;;;;;;8.58;61.88;101092.31;5082855;27;96886;-71
2023/02/19 06:26:16;;;;;;;4.93;2.00;;;;;;;8.79;61.03;101101.53;5080951;27;97352;-71
2023/02/19 06:28:42;;;;;;;6.97;1.70;;;;;;;8.27;62.15;101105.22;5074454;27;100593;-71
2023/02/19 06:31:10;;;;;;;7.28;1.80;;;;;;;8.01;63.73;101113.63;5082959;27;100813;-70
2023/02/19 06:33:39;;;;;;;12.30;2.28;;;;;;;8.49;62.73;101117.97;5079710;27;97138;-72
2023/02/19 06:36:10;;;;;;;4.88;1.90;;;;;;;8.61;61.61;101123.84;5077093;27;96984;-71
2023/02/19 06:38:36;;;;;;;4.95;1.45;;;;;;;8.58;61.41;101136.22;5082572;27;98870;-71
2023/02/19 06:41:05;;;;;;;7.57;1.55;;;;;;;8.54;61.14;101145.06;5083504;27;98895;-71
2023/02/19 06:43:32;;;;;;;6.55;1.70;;;;;;;8.31;62.12;101156.09;5077220;27;97700;-71
2023/02/19 06:45:59;;;;;;;7.75;1.45;;;;;;;8.50;62.03;101159.22;5083911;27;97353;-70
2023/02/19 06:48:26;;;;;;;5.10;1.52;;;;;;;8.25;62.15;101162.31;5086836;27;99255;-70
2023/02/19 06:50:52;;;;;;;3.72;1.75;;;;;;;7.88;63.50;101169.13;5080717;27;98904;-69
2023/02/19 06:53:20;;;;;;;5.68;1.58;;;;;;;8.18;62.85;101171.22;5086415;27;97084;-71
2023/02/19 06:55:55;;;;;;;5.63;1.73;;;;;;;8.43;61.91;101176.03;5080960;27;97100;-70
2023/02/19 06:58:22;;;;;;;7.63;1.70;;;;;;;8.30;62.17;101178.91;5075317;27;98770;-71
2023/02/19 07:00:48;;;;;;;4.85;2.38;;;;;;;8.10;62.53;101181.03;5082940;27;97793;-70
2023/02/19 07:03:15;;;;;;;3.92;1.40;;;;;;;8.11;62.17;101195.94;5083217;27;98599;-70
2023/02/19 07:05:42;;;;;;;6.55;1.90;;;;;;;8.28;61.56;101190.34;5083469;27;99621;-71
2023/02/19 07:08:09;;;;;;;5.40;1.50;;;;;;;8.45;61.47;101188.28;5081186;27;100095;-71
2023/02/19 07:10:37;;;;;;;8.88;1.70;;;;;;;8.62;60.44;101185.31;5079355;27;98844;-71
2023/02/19 07:13:03;;;;;;;5.20;1.85;;;;;;;8.46;61.30;101187.41;5081481;27;99402;-71
2023/02/19 07:15:30;;;;;;;8.48;1.77;;;;;;;8.35;61.55;101199.88;5077070;27;96957;-72
2023/02/19 07:17:56;;;;;;;2.42;1.27;;;;;;;8.63;60.55;101192.31;5086622;27;97730;-70
2023/02/19 07:20:22;;;;;;;5.00;1.23;;;;;;;8.44;59.75;101206.75;5083382;27;98313;-70
2023/02/19 07:22:49;;;;;;;3.65;1.60;;;;;;;8.63;60.24;101200.22;5086787;27;97575;-72
2023/02/19 07:25:16;;;;;;;4.68;1.30;;;;;;;8.74;60.72;101201.72;5084950;27;96901;-72
2023/02/19 07:27:43;;;;;;;4.15;1.70;;;;;;;8.56;59.96;101209.13;5082946;27;98617;-70
2023/02/19 07:30:10;;;;;;;9.20;1.83;;;;;;;8.45;60.06;101221.66;5085216;27;98952;-70
2023/02/19 07:32:40;;;;;;;8.65;1.85;;;;;;;8.71;59.85;101216.75;5082606;27;97062;-71
2023/02/19 07:35:07;;;;;;;8.15;1.88;;;;;;;8.73;60.18;101228.09;5082357;27;97718;-73
2023/02/19 07:37:34;;;;;;;7.43;1.50;;;;;;;8.52;59.20;101220.66;5079524;27;97976;-70
2023/02/19 07:40:01;;;;;;;7.47;1.92;;;;;;;8.63;59.97;101234.47;5081186;27;98805;-71
2023/02/19 07:42:27;;;;;;;7.18;1.48;;;;;;;8.62;59.03;101228.31;5081079;27;98654;-73
2023/02/19 07:44:55;;;;;;;5.28;1.23;;;;;;;8.52;59.88;101239.09;5074109;27;98955;-71
2023/02/19 07:47:21;;;;;;;3.20;1.20;;;;;;;8.68;58.60;101229.97;5081149;27;99496;-72
2023/02/19 07:49:47;;;;;;;3.40;1.40;;;;;;;8.79;57.91;101246.44;5076263;27;98996;-72
2023/02/19 07:52:14;;;;;;;6.32;1.73;;;;;;;8.93;58.11;101248.78;5081439;27;96829;-71
2023/02/19 07:54:40;;;;;;;8.20;2.70;;;;;;;9.10;57.96;101250.19;5077940;27;98799;-73
2023/02/19 07:57:07;;;;;;;7.72;1.88;;;;;;;9.07;58.52;101263.41;5080233;27;100586;-70
2023/02/19 07:59:34;;;;;;;9.65;1.98;;;;;;;8.82;58.37;101266.56;5084020;27;98903;-71
2023/02/19 08:04:47;;;;;;;4.93;1.50;;;;;;;8.84;58.31;101275.34;5081453;27;98129;-70
2023/02/19 08:07:13;;;;;;;6.97;1.77;;;;;;;9.04;57.59;101281.94;5078024;27;99433;-70
2023/02/19 08:09:40;;;;;;;6.85;1.83;;;;;;;8.32;60.13;101284.22;5079867;27;99070;-72
2023/02/19 08:14:53;;;;;;;6.28;1.75;;;;;;;8.27;60.90;101302.69;5080548;27;97104;-71
2023/02/19 08:17:21;;;;;;;8.35;2.20;;;;;;;8.57;60.10;101303.06;5075443;27;99463;-72
2023/02/19 08:19:48;;;;;;;5.22;1.77;;;;;;;8.22;60.85;101311.56;5083540;27;102335;-70
2023/02/19 08:22:15;;;;;;;5.47;1.55;;;;;;;8.45;60.52;101309.44;5079303;27;97741;-72
2023/02/19 08:24:41;;;;;;;8.98;1.92;;;;;;;8.72;59.70;101315.97;5071373;27;97618;-72
2023/02/19 08:27:08;;;;;;;6.57;1.77;;;;;;;8.75;59.08;101339.63;5079516;27;100020;-70
2023/02/19 08:29:35;;;;;;;7.18;1.90;;;;;;;8.98;58.21;101331.28;5074829;27;105833;-71
2023/02/19 08:32:01;;;;;;;6.28;2.13;;;;;;;9.06;58.45;101340.75;5073094;27;96975;-73
2023/02/19 08:34:29;;;;;;;7.50;1.50;;;;;;;9.00;58.33;101345.28;5077394;27;97299;-72
2023/02/19 08:36:55;;;;;;;5.95;1.85;;;;;;;8.75;59.55;101350.16;5084805;27;97767;-72
2023/02/19 08:39:22;;;;;;;7.07;1.60;;;;;;;9.13;57.92;101359.97;5076581;27;99074;-73
2023/02/19 08:41:49;;;;;;;5.15;1.35;;;;;;;8.73;58.73;101358.06;5074685;27;99351;-73
2023/02/19 08:44:15;;;;;;;4.80;1.63;;;;;;;9.26;57.83;101361.44;5074234;27;97134;-71
2023/02/19 08:46:42;;;;;;;9.65;1.30;;;;;;;9.07;58.11;101362.72;5072416;27;99086;-72
2023/02/19 08:49:11;;;;;;;7.53;2.22;;;;;;;8.87;58.36;101370.13;5075820;27;101423;-75
2023/02/19 08:51:39;;;;;;;10.80;1.83;;;;;;;9.36;56.93;101365.66;5075714;27;99154;-73
2023/02/19 08:54:06;;;;;;;7.07;1.65;;;;;;;9.40;57.66;101371.72;5070264;27;102837;-72
2023/02/19 08:56:32;;;;;;;9.07;2.03;;;;;;;9.62;56.22;101383.56;5079057;27;99256;-73
2023/02/19 08:58:58;;;;;;;12.10;2.20;;;;;;;9.68;56.36;101382.56;5072725;27;98735;-71
2023/02/19 09:01:25;;;;;;;9.38;1.65;;;;;;;9.31;56.91;101385.13;5073415;27;97991;-72
2023/02/19 09:03:52;;;;;;;8.32;1.90;;;;;;;9.43;57.00;101392.78;5077506;27;97164;-73
2023/02/19 09:06:20;;;;;;;6.15;1.63;;;;;;;10.04;55.32;101388.81;5081468;27;99266;-71
2023/02/19 09:08:48;;;;;;;7.70;1.83;;;;;;;10.41;54.68;101394.09;5074974;27;99050;-71
2023/02/19 09:11:15;;;;;;;9.15;2.20;;;;;;;10.91;53.82;101393.66;5081579;27;96966;-71
2023/02/19 09:13:42;;;;;;;6.97;1.90;;;;;;;11.12;52.85;101397.53;5074944;27;96895;-71
2023/02/19 09:16:09;;;;;;;10.50;2.33;;;;;;;11.21;51.74;101399.06;5080717;27;102895;-70
2023/02/19 09:18:35;;;;;;;14.68;2.17;;;;;;;10.91;52.21;101404.25;5080690;27;99208;-72
2023/02/19 09:21:03;;;;;;;8.20;1.60;;;;;;;10.94;52.11;101403.31;5083484;27;100004;-71
2023/02/19 09:23:30;;;;;;;16.63;3.03;;;;;;;11.27;52.13;101412.09;5079090;27;96918;-71
2023/02/19 09:26:02;;;;;;;9.75;1.52;;;;;;;11.12;51.14;101406.31;5075585;27;101371;-71
2023/02/19 09:28:28;;;;;;;9.48;1.83;;;;;;;10.94;52.28;101419.19;5075484;27;98267;-73
2023/02/19 09:30:55;;;;;;;9.43;2.08;;;;;;;10.30;53.38;101418.16;5079476;27;97051;-71
2023/02/19 09:33:21;;;;;;;10.75;1.80;;;;;;;10.43;53.49;101422.22;5075258;27;98500;-71
2023/02/19 09:35:48;;;;;;;8.77;2.55;;;;;;;10.52;53.92;101424.63;5080536;27;101307;-71
2023/02/19 09:38:14;;;;;;;9.65;1.65;;;;;;;9.96;54.33;101431.22;5082497;27;100756;-74
2023/02/19 09:40:41;;;;;;;6.50;1.10;;;;;;;10.54;53.30;101436.03;5077479;27;97013;-72
2023/02/19 09:43:15;;;;;;;7.55;1.83;;;;;;;10.78;52.41;101426.63;5077985;27;97226;-73
2023/02/19 09:45:42;;;;;;;6.60;1.40;;;;;;;10.52;52.70;101431.69;5079085;27;98929;-72
2023/02/19 09:48:12;;;;;;;7.43;1.30;;;;;;;10.80;53.26;101432.75;5084544;27;99880;-73
2023/02/19 09:50:43;;;;;;;7.00;1.60;;;;;;;11.34;50.69;101442.78;5081953;27;97111;-72
2023/02/19 09:53:15;;;;;;;6.47;1.42;;;;;;;11.29;50.84;101442.03;5081684;27;98557;-72
2023/02/19 09:55:43;;;;;;;10.23;1.15;;;;;;;11.12;50.50;101443.34;5067911;27;101710;-73
2023/02/19 09:58:23;;;;;;;15.20;1.85;;;;;;;11.00;51.29;101450.75;5078058;27;99605;-71
2023/02/19 10:00:51;;;;;;;6.20;0.95;;;;;;;10.99;49.94;101456.94;5080009;27;96769;-72
2023/02/19 10:03:29;;;;;;;8.95;1.20;;;;;;;11.05;49.63;101451.50;5073841;27;97396;-71
2023/02/19 10:05:57;;;;;;;8.93;1.38;;;;;;;10.38;50.95;101455.78;5072387;27;99786;-71
2023/02/19 10:08:24;;;;;;;5.28;0.77;;;;;;;10.65;50.75;101465.72;5073758;27;101868;-72
2023/02/19 10:10:52;;;;;;;8.45;1.40;;;;;;;11.19;50.22;101462.56;5077476;27;97035;-73
2023/02/19 10:13:22;;;;;;;8.75;1.42;;;;;;;11.57;49.16;101469.47;5084972;27;97649;-72
2023/02/19 10:15:54;;;;;;;9.35;1.27;;;;;;;11.86;48.30;101471.31;5066989;27;99240;-72
2023/02/19 10:18:23;;;;;;;8.60;1.63;;;;;;;11.87;47.65;101475.72;5076601;27;101195;-73
2023/02/19 10:20:52;;;;;;;13.10;1.40;;;;;;;12.25;47.07;101480.72;5070342;27;98881;-72
2023/02/19 10:23:19;;;;;;;8.55;1.35;;;;;;;11.97;46.22;101490.41;5073549;27;99847;-73
2023/02/19 10:25:49;;;;;;;7.70;1.17;;;;;;;11.95;47.20;101492.22;5071671;27;99516;-70
2023/02/19 10:28:18;;;;;;;6.80;1.13;;;;;;;11.66;47.17;101500.09;5076002;27;99611;-72
2023/02/19 10:30:51;;;;;;;7.78;1.55;;;;;;;11.59;46.71;101510.00;5076572;27;96993;-72
2023/02/19 10:33:18;;;;;;;7.15;1.15;;;;;;;12.11;46.54;101517.34;5072191;27;98646;-72
2023/02/19 10:35:54;;;;;;;11.27;1.75;;;;;;;12.17;45.01;101519.81;5075480;27;99441;-72
2023/02/19 10:38:24;;;;;;;4.95;1.05;;;;;;;12.19;45.22;101523.31;5076316;27;98899;-73
2023/02/19 10:40:58;;;;;;;9.32;1.30;;;;;;;12.13;45.12;101515.53;5080696;27;97111;-72
2023/02/19 10:43:32;;;;;;;5.68;1.33;;;;;;;12.01;45.54;101529.16;5083650;27;96843;-72
2023/02/19 10:46:03;;;;;;;8.88;1.70;;;;;;;12.02;45.91;101528.22;5073780;27;100987;-72
2023/02/19 10:48:32;;;;;;;6.82;0.98;;;;;;;12.33;45.32;101537.00;5071925;27;99409;-72
2023/02/19 10:51:03;;;;;;;5.90;1.23;;;;;;;12.09;45.84;101532.41;5076762;27;97610;-73
2023/02/19 10:53:40;;;;;;;4.78;1.08;;;;;;;12.36;44.07;101528.94;5079163;27;96831;-72
2023/02/19 10:56:08;;;;;;;12.13;2.58;;;;;;;12.38;43.54;101537.72;5076616;27;98162;-73
2023/02/19 10:58:36;;;;;;;10.55;1.30;;;;;;;12.52;43.41;101533.78;5077762;27;96804;-73
2023/02/19 11:01:18;;;;;;;5.88;0.95;;;;;;;12.62;42.89;101533.44;5078506;27;97079;-73
2023/02/19 11:03:45;;;;;;;3.95;0.90;;;;;;;12.06;44.29;101539.59;5083173;27;98564;-73
2023/02/19 11:06:14;;;;;;;5.07;1.55;;;;;;;11.38;45.23;101561.72;5080859;27;97974;-73
2023/02/19 11:08:53;;;;;;;5.07;0.93;;;;;;;11.59;44.37;101560.28;5079751;27;101505;-73
2023/02/19 11:11:40;;;;;;;5.30;0.93;;;;;;;11.94;43.16;101557.59;5074962;27;97139;-74
2023/02/19 11:14:15;;;;;;;6.13;1.48;;;;;;;11.85;42.58;101572.84;5064814;27;97162;-74
2023/02/19 11:16:46;;;;;;;5.93;0.98;;;;;;;11.78;42.32;101572.16;5083434;27;99393;-74
2023/02/19 11:19:24;;;;;;;6.88;1.60;;;;;;;12.12;42.34;101577.38;5084923;27;98877;-72
2023/02/19 11:21:51;;;;;;;7.70;0.90;;;;;;;12.33;42.35;101576.75;5075385;27;97469;-73
2023/02/19 11:24:25;;;;;;;11.13;0.70;;;;;;;12.01;42.59;101587.41;5080932;27;97199;-73
2023/02/19 11:26:52;;;;;;;11.38;0.75;;;;;;;11.64;43.64;101591.94;5077430;27;101669;-72
2023/02/19 11:29:23;;;;;;;9.88;1.10;;;;;;;12.23;42.39;101582.34;5075657;27;100964;-75
2023/02/19 11:31:51;;;;;;;4.45;0.85;;;;;;;12.58;41.66;101583.97;5080444;27;97129;-72
2023/02/19 11:34:29;;;;;;;4.18;1.20;;;;;;;12.93;40.96;101586.38;5080781;27;97012;-73
2023/02/19 11:37:10;;;;;;;6.78;0.80;;;;;;;12.91;40.74;101582.91;5076557;27;97756;-74
2023/02/19 11:39:39;;;;;;;7.32;1.08;;;;;;;12.25;41.58;101592.00;5072950;27;98856;-74
2023/02/19 11:42:35;;;;;;;7.65;1.38;;;;;;;12.52;41.37;101608.03;5073120;27;97855;-73
2023/02/19 11:45:21;;;;;;;13.20;2.03;;;;;;;12.86;40.71;101597.25;5064118;27;97150;-73
2023/02/19 11:48:05;;;;;;;8.13;1.08;;;;;;;12.62;40.51;101597.06;5077733;27;98164;-72
2023/02/19 11:50:46;;;;;;;6.93;0.80;;;;;;;12.38;40.61;101588.09;5081689;27;98962;-73
2023/02/19 11:53:20;;;;;;;8.50;1.08;;;;;;;12.27;40.43;101590.16;5076472;27;97037;-73
2023/02/19 11:56:00;;;;;;;7.47;0.93;;;;;;;12.40;40.29;101585.41;5084882;27;97123;-73
2023/02/19 11:58:54;;;;;;;12.85;2.55;;;;;;;12.67;39.82;101591.63;5082539;27;99400;-72
2023/02/19 12:01:30;;;;;;;8.27;1.50;;;;;;;13.00;39.37;101587.03;5081087;27;99006;-72